Black Creek, New York
Current Conditions -  °F | °C
As of 9:55 PM on Thursday 18 Dec 2014 (Local Time) from KOLE Reporting Station
Overcast Overcast  
Wind Chill: -7°   Ceiling: 300
Heat Index: -3°   Visibility: 7mi
Dew Point: -3°   Wind: 6mph
Humidity: 100%   Direction: 260°W
Pressure: 29.97"   Gusts: NA
Location:  42.28°N, 78.23°W
Report Text: KOLE 190255Z AUTO 26005KT 7SM OVC003 M03/M03 A2997 RMK AO2
Loading
Personal Weather Stations






























Interactive Weather Map New forecast layout! Learn more

10-Day Weather Forecast

Advertisements
Track Severe Weather on mobile